Aérodrome :
LOGIN :

S'inscrire | Disclaimer

   EN    FR    IT 

 










Légende :    VFR   VFR Marginal   IFR   IFR Intensif   IFR Très Intensif
Visi : 
Plafond : 
>= 8 km
>= 3000ft
5 à 8 km
1000 à 3000 ft
1500m à 5 km
500 à 1000 ft
800 à 1500m
200 à 500 ft
< 800m
< 200 ft
Symboles :   Orages  Brouillard  Fortes neiges  Fortes précipitations  Vent > 20 kt
SIGMETs :   Divers  Orages  Givrage  Turbulence  Onde Orograph.  Cendres Volcan.






- Altitude de l'aérodrome : 408 ft
- Code IATA : FKB


EDSB - Karlsruhe Baden Baden

DERNIER METAR :
  • 241350Z 24009KT 210V280 9999 FEW037 BKN042 04/M03 Q1003

METARs EXPIRÉS :
  • 241320Z 24008KT 210V280 9999 FEW037 BKN042 04/M03 Q1003
  • 241250Z 25009KT 210V290 9999 FEW033 BKN043 03/M04 Q1003
  • 241220Z 25011KT 230V290 9999 FEW033 BKN043 03/M03 Q1003
  • 241150Z 25011KT 9999 BKN037 03/M03 Q1003
  • 241120Z 24011KT 9999 BKN033 03/M03 Q1003

TAF TAF EDSB
Valide du 24 à 12h jusqu'au 25 à 12h UTC


241100Z 2412/2512 25010KT 9999 SCT035
BECMG 2416/2418 21005KT
TEMPO 2422/2502 4000 RASN BKN014
BECMG 2500/2502 BKN009
TEMPO 2502/2508 2000 SNRA BKN004
BECMG 2507/2509 BKN020
TEMPO 2508/2512 RA BKN012



MET'MAP, la Météo Aéronautique d'un coup d'oeil ! - Copyright ORBIFLY Décembre 2007 - Disclaimer

ORBIFLY MET'MAP TEAM :

Programmation & Développement : Alexandra Zaïnal
Sur une idée originale de : Baudouin d'Aumeries
Assistance à la programmation : Marc-Olivier Méhu
Soutien technique & logistique : Manuel Goepfert

Contact : metmap@orbifly.com




SOURCES & CREDITS :

   NOAA